createdAt,value
2023-05-10T00:01:32.186Z,3.20
2023-05-10T00:04:01.617Z,3.13
2023-05-10T00:06:31.351Z,3.05
2023-05-10T00:09:01.029Z,2.97
2023-05-10T00:11:30.350Z,2.90
2023-05-10T00:14:01.218Z,2.84
2023-05-10T00:16:33.278Z,2.77
2023-05-10T00:19:08.122Z,2.70
2023-05-10T00:21:40.055Z,2.65
2023-05-10T00:24:11.410Z,2.60
2023-05-10T00:26:41.604Z,2.57
2023-05-10T00:29:12.533Z,2.55
2023-05-10T00:31:44.987Z,2.51
2023-05-10T00:34:18.376Z,2.46
2023-05-10T00:36:49.764Z,2.42
2023-05-10T00:39:20.065Z,2.38
2023-05-10T00:41:49.172Z,2.32
2023-05-10T00:44:20.193Z,2.26
2023-05-10T00:46:50.473Z,2.25
2023-05-10T00:49:21.207Z,2.24
2023-05-10T00:51:51.569Z,2.24
2023-05-10T00:54:21.793Z,2.23
2023-05-10T00:56:53.527Z,2.21
2023-05-10T00:59:23.536Z,2.19
2023-05-10T01:01:54.009Z,2.17
2023-05-10T01:04:27.057Z,2.13
2023-05-10T01:06:58.493Z,2.06
2023-05-10T01:09:30.671Z,2.01
2023-05-10T01:12:00.864Z,1.97
2023-05-10T01:14:35.109Z,1.93
2023-05-10T01:17:08.704Z,1.90
2023-05-10T01:19:41.435Z,1.85
2023-05-10T01:22:17.235Z,1.84
2023-05-10T01:24:54.519Z,1.80
2023-05-10T01:27:28.901Z,1.76
2023-05-10T01:30:16.332Z,1.71
2023-05-10T01:32:55.311Z,1.68
2023-05-10T01:35:34.542Z,1.65
2023-05-10T01:38:10.115Z,1.65
2023-05-10T01:40:43.793Z,1.64
2023-05-10T01:43:20.650Z,1.65
2023-05-10T01:46:14.903Z,1.65
2023-05-10T01:48:53.399Z,1.62
2023-05-10T01:51:28.998Z,1.59
2023-05-10T01:54:05.809Z,1.53
2023-05-10T01:56:38.120Z,1.48
2023-05-10T01:59:08.446Z,1.43
2023-05-10T02:01:39.444Z,1.39
2023-05-10T02:04:11.934Z,1.33
2023-05-10T02:06:43.950Z,1.25
2023-05-10T02:09:15.111Z,1.20
2023-05-10T02:11:46.408Z,1.17
2023-05-10T02:14:19.016Z,1.15
2023-05-10T02:16:52.733Z,1.13
2023-05-10T02:19:24.914Z,1.10
2023-05-10T02:21:57.111Z,1.07
2023-05-10T02:24:30.048Z,1.08
2023-05-10T02:27:02.620Z,1.07
2023-05-10T02:29:34.124Z,1.04
2023-05-10T02:32:06.085Z,1.00
2023-05-10T02:34:36.769Z,0.93
2023-05-10T02:37:08.416Z,0.84
2023-05-10T02:39:45.989Z,0.74
2023-05-10T02:42:22.149Z,0.65
2023-05-10T02:44:52.941Z,0.59
2023-05-10T02:47:23.209Z,0.55
2023-05-10T02:49:53.289Z,0.52
2023-05-10T02:52:28.680Z,0.49
2023-05-10T02:55:02.123Z,0.45
2023-05-10T02:57:35.288Z,0.46
2023-05-10T03:00:06.905Z,0.46
2023-05-10T03:02:38.129Z,0.46
2023-05-10T03:05:09.080Z,0.49
2023-05-10T03:07:39.777Z,0.50
2023-05-10T03:10:12.169Z,0.52
2023-05-10T03:12:58.819Z,0.53
2023-05-10T03:15:44.599Z,0.56
2023-05-10T03:18:19.861Z,0.60
2023-05-10T03:20:50.586Z,0.62
2023-05-10T03:23:20.118Z,0.63
2023-05-10T03:25:50.526Z,0.64
2023-05-10T03:28:21.430Z,0.65
2023-05-10T03:30:50.912Z,0.67
2023-05-10T03:33:20.230Z,0.68
2023-05-10T03:35:49.699Z,0.69
2023-05-10T03:38:18.930Z,0.72
2023-05-10T03:40:48.713Z,0.74
2023-05-10T03:43:18.415Z,0.76
2023-05-10T03:45:48.733Z,0.80
2023-05-10T03:48:18.874Z,0.85
2023-05-10T03:50:48.304Z,0.90
2023-05-10T03:53:18.499Z,0.95
2023-05-10T03:55:48.102Z,1.03
2023-05-10T03:58:17.802Z,1.10
2023-05-10T04:00:46.924Z,1.15
2023-05-10T04:03:17.082Z,1.22
2023-05-10T04:05:46.118Z,1.29
2023-05-10T04:08:17.865Z,1.40
2023-05-10T04:10:48.596Z,1.57
2023-05-10T04:13:18.650Z,1.83
2023-05-10T04:15:48.119Z,2.16
2023-05-10T04:18:17.132Z,2.52
2023-05-10T04:20:45.818Z,2.85
2023-05-10T04:23:15.728Z,3.16
2023-05-10T04:25:44.604Z,3.37
2023-05-10T04:28:13.586Z,3.52
2023-05-10T04:30:42.839Z,3.69
2023-05-10T04:33:11.675Z,3.85
2023-05-10T04:35:41.490Z,3.99
2023-05-10T04:38:10.079Z,4.12
2023-05-10T04:40:39.297Z,4.24
2023-05-10T04:43:08.960Z,4.36
2023-05-10T04:45:38.272Z,4.47
2023-05-10T04:48:07.871Z,4.61
2023-05-10T04:50:36.973Z,4.77
2023-05-10T04:53:05.990Z,4.98
2023-05-10T04:55:34.677Z,5.21
2023-05-10T04:58:04.377Z,5.50
2023-05-10T05:00:34.687Z,5.82
2023-05-10T05:03:03.683Z,6.22
2023-05-10T05:05:32.886Z,6.69
2023-05-10T05:08:02.222Z,7.24
2023-05-10T05:10:31.281Z,7.88
2023-05-10T05:13:00.165Z,8.49
2023-05-10T05:15:31.208Z,9.02
2023-05-10T05:18:00.519Z,9.52
2023-05-10T05:20:29.823Z,10.01
2023-05-10T05:22:58.598Z,10.26
2023-05-10T05:25:27.489Z,10.43
2023-05-10T05:27:56.997Z,10.74
2023-05-10T05:30:25.587Z,11.05
2023-05-10T05:32:54.267Z,11.47
2023-05-10T05:35:23.392Z,11.85
2023-05-10T05:37:52.566Z,11.93
2023-05-10T05:40:22.061Z,12.11
2023-05-10T05:42:51.563Z,12.35
2023-05-10T05:45:20.295Z,12.50
2023-05-10T05:47:49.665Z,12.74
2023-05-10T05:50:18.946Z,12.86
2023-05-10T05:52:47.444Z,12.97
2023-05-10T05:55:17.125Z,13.15
2023-05-10T05:57:47.011Z,13.27
2023-05-10T06:00:15.848Z,13.44
2023-05-10T06:02:44.727Z,13.73
2023-05-10T06:05:15.544Z,13.72
2023-05-10T06:07:45.332Z,13.93
2023-05-10T06:10:13.981Z,14.08
2023-05-10T06:12:42.986Z,14.25
2023-05-10T06:15:11.848Z,14.45
2023-05-10T06:17:41.633Z,14.69
2023-05-10T06:20:10.646Z,14.84
2023-05-10T06:22:39.355Z,14.96
2023-05-10T06:25:09.157Z,14.98
2023-05-10T06:27:38.039Z,14.97
2023-05-10T06:30:13.437Z,14.94
2023-05-10T06:32:45.201Z,15.13
2023-05-10T06:35:14.269Z,15.17
2023-05-10T06:37:43.435Z,15.12
2023-05-10T06:40:20.727Z,15.04
2023-05-10T06:42:49.912Z,15.32
2023-05-10T06:45:20.224Z,15.40
2023-05-10T06:47:49.055Z,15.22
2023-05-10T06:50:17.916Z,15.13
2023-05-10T06:52:46.708Z,14.95
2023-05-10T06:55:16.258Z,14.85
2023-05-10T06:57:45.622Z,14.99
2023-05-10T07:00:14.815Z,14.88
2023-05-10T07:02:43.742Z,15.02
2023-05-10T07:05:12.939Z,15.23
2023-05-10T07:07:41.581Z,15.41
2023-05-10T07:10:12.958Z,15.31
2023-05-10T07:12:41.466Z,15.21
2023-05-10T07:15:10.812Z,15.16
2023-05-10T07:17:39.341Z,15.20
2023-05-10T07:20:08.645Z,15.16
2023-05-10T07:22:38.306Z,15.11
2023-05-10T07:25:07.711Z,15.40
2023-05-10T07:27:36.410Z,15.59
2023-05-10T07:30:07.924Z,15.54
2023-05-10T07:32:37.031Z,15.51
2023-05-10T07:35:06.868Z,15.65
2023-05-10T07:37:36.873Z,15.82
2023-05-10T07:40:06.288Z,15.90
2023-05-10T07:42:35.461Z,16.28
2023-05-10T07:45:04.466Z,16.65
2023-05-10T07:47:33.388Z,16.69
2023-05-10T07:50:02.345Z,16.75
2023-05-10T07:52:31.224Z,17.09
2023-05-10T07:54:59.808Z,17.29
2023-05-10T07:57:28.510Z,17.39
2023-05-10T07:59:57.185Z,17.27
2023-05-10T08:02:26.921Z,17.45
2023-05-10T08:04:57.626Z,17.55
2023-05-10T08:07:26.527Z,17.68
2023-05-10T08:09:55.203Z,17.55
2023-05-10T08:12:23.994Z,17.60
2023-05-10T08:14:52.776Z,17.79
2023-05-10T08:17:22.842Z,18.21
2023-05-10T08:19:53.449Z,18.59
2023-05-10T08:22:22.851Z,18.84
2023-05-10T08:24:51.719Z,19.04
2023-05-10T08:27:20.513Z,18.98
2023-05-10T08:29:50.626Z,19.08
2023-05-10T08:32:19.581Z,19.40
2023-05-10T08:34:48.307Z,19.39
2023-05-10T08:37:18.215Z,18.87
2023-05-10T08:39:49.282Z,19.04
2023-05-10T08:42:21.117Z,18.94
2023-05-10T08:44:50.958Z,18.88
2023-05-10T08:47:20.122Z,19.22
2023-05-10T08:49:52.431Z,19.55
2023-05-10T08:52:22.011Z,19.56
2023-05-10T08:54:50.897Z,20.00
2023-05-10T08:57:20.306Z,19.80
2023-05-10T08:59:49.429Z,19.09
2023-05-10T09:02:19.810Z,18.57
2023-05-10T09:04:50.292Z,18.24
2023-05-10T09:07:19.467Z,17.99
2023-05-10T09:09:49.977Z,17.90
2023-05-10T09:12:18.458Z,17.78
2023-05-10T09:14:47.894Z,17.54
2023-05-10T09:17:16.438Z,17.20
2023-05-10T09:19:46.154Z,17.28
2023-05-10T09:22:14.855Z,17.79
2023-05-10T09:24:46.489Z,18.30
2023-05-10T09:27:15.693Z,18.83
2023-05-10T09:29:44.721Z,19.39
2023-05-10T09:32:13.787Z,20.04
2023-05-10T09:34:43.685Z,20.49
2023-05-10T09:37:12.701Z,21.01
2023-05-10T09:39:43.218Z,20.92
2023-05-10T09:42:11.915Z,20.59
2023-05-10T09:44:42.424Z,20.06
2023-05-10T09:47:11.643Z,19.43
2023-05-10T09:49:40.219Z,19.09
2023-05-10T09:52:09.309Z,18.77
2023-05-10T09:54:38.713Z,18.58
2023-05-10T09:57:10.776Z,19.12
2023-05-10T09:59:44.366Z,19.29
2023-05-10T10:02:13.478Z,19.53
2023-05-10T10:04:43.106Z,20.26
2023-05-10T10:07:11.752Z,20.46
2023-05-10T10:09:40.856Z,19.98
2023-05-10T10:12:09.959Z,19.76
2023-05-10T10:14:38.843Z,19.53
2023-05-10T10:17:08.899Z,19.40
2023-05-10T10:19:38.230Z,19.58
2023-05-10T10:22:07.465Z,20.06
2023-05-10T10:24:36.045Z,20.38
2023-05-10T10:27:13.541Z,20.53
2023-05-10T10:30:00.981Z,20.19
2023-05-10T10:32:34.908Z,19.43
2023-05-10T10:35:04.274Z,18.70
2023-05-10T10:37:44.837Z,18.17
2023-05-10T10:40:28.376Z,17.80
2023-05-10T10:42:57.568Z,17.94
2023-05-10T10:45:27.749Z,18.48
2023-05-10T10:48:14.898Z,19.12
2023-05-10T10:50:47.420Z,19.95
2023-05-10T10:53:15.901Z,20.39
2023-05-10T10:55:49.066Z,20.42
2023-05-10T10:58:30.747Z,20.29
2023-05-10T11:01:11.853Z,20.59
2023-05-10T11:03:40.934Z,20.92
2023-05-10T11:06:10.004Z,21.25
2023-05-10T11:08:45.451Z,21.29
2023-05-10T11:11:16.302Z,21.51
2023-05-10T11:13:48.360Z,21.83
2023-05-10T11:16:21.966Z,21.77
2023-05-10T11:19:02.925Z,21.98
2023-05-10T11:21:32.519Z,22.58
2023-05-10T11:24:02.653Z,22.49
2023-05-10T11:26:37.716Z,22.38
2023-05-10T11:29:06.675Z,22.33
2023-05-10T11:31:35.810Z,22.53
2023-05-10T11:34:04.692Z,22.96
2023-05-10T11:36:34.883Z,23.04
2023-05-10T11:39:04.391Z,22.97
2023-05-10T11:41:33.191Z,23.35
2023-05-10T11:44:02.164Z,23.20
2023-05-10T11:46:30.822Z,22.91
2023-05-10T11:49:07.535Z,22.87
2023-05-10T11:51:40.557Z,22.27
2023-05-10T11:54:11.040Z,21.50
2023-05-10T11:56:41.261Z,21.29
2023-05-10T11:59:09.859Z,21.44
2023-05-10T12:01:38.940Z,21.37
2023-05-10T12:04:08.417Z,21.11
2023-05-10T12:06:41.905Z,21.01
2023-05-10T12:09:10.642Z,20.97
2023-05-10T12:11:43.984Z,20.77
2023-05-10T12:14:13.628Z,20.47
2023-05-10T12:16:44.583Z,20.33
2023-05-10T12:19:13.805Z,20.28
2023-05-10T12:21:43.172Z,20.35
2023-05-10T12:24:11.760Z,20.39
2023-05-10T12:26:40.646Z,20.30
2023-05-10T12:29:19.374Z,19.94
2023-05-10T12:31:58.127Z,19.89
2023-05-10T12:34:27.397Z,19.96
2023-05-10T12:36:56.178Z,20.57
2023-05-10T12:39:25.404Z,20.89
2023-05-10T12:41:54.275Z,21.05
2023-05-10T12:44:23.075Z,21.13
2023-05-10T12:46:51.638Z,21.03
2023-05-10T12:49:20.947Z,20.89
2023-05-10T12:51:49.312Z,20.63
2023-05-10T12:54:17.895Z,20.50
2023-05-10T12:56:46.693Z,20.43
2023-05-10T12:59:15.680Z,20.48
2023-05-10T13:01:44.342Z,20.46
2023-05-10T13:04:13.089Z,20.54
2023-05-10T13:06:42.077Z,20.64
2023-05-10T13:09:11.480Z,20.44
2023-05-10T13:11:42.808Z,20.26
2023-05-10T13:14:12.399Z,19.97
2023-05-10T13:16:41.291Z,19.68
2023-05-10T13:19:10.487Z,19.80
2023-05-10T13:21:39.588Z,19.86
2023-05-10T13:24:08.781Z,19.70
2023-05-10T13:26:37.662Z,19.53
2023-05-10T13:29:06.451Z,19.31
2023-05-10T13:31:35.388Z,19.06
2023-05-10T13:34:04.031Z,18.82
2023-05-10T13:36:32.916Z,18.77
2023-05-10T13:39:03.851Z,18.78
2023-05-10T13:41:32.542Z,18.77
2023-05-10T13:44:01.027Z,18.74
2023-05-10T13:46:30.851Z,18.48
2023-05-10T13:48:59.327Z,18.18
2023-05-10T13:51:28.213Z,18.00
2023-05-10T13:53:56.697Z,17.71
2023-05-10T13:56:25.274Z,17.55
2023-05-10T13:58:53.964Z,17.31
2023-05-10T14:01:22.698Z,17.12
2023-05-10T14:03:52.082Z,16.98
2023-05-10T14:06:21.863Z,16.88
2023-05-10T14:08:50.347Z,16.79
2023-05-10T14:11:19.411Z,16.79
2023-05-10T14:13:48.739Z,16.76
2023-05-10T14:16:17.578Z,16.85
2023-05-10T14:18:47.494Z,16.88
2023-05-10T14:21:16.734Z,16.97
2023-05-10T14:23:46.652Z,17.07
2023-05-10T14:26:15.141Z,17.11
2023-05-10T14:28:43.796Z,17.20
2023-05-10T14:31:12.606Z,17.34
2023-05-10T14:33:41.702Z,17.39
2023-05-10T14:36:10.382Z,17.27
2023-05-10T14:38:38.868Z,17.21
2023-05-10T14:41:08.666Z,17.33
2023-05-10T14:43:37.980Z,17.37
2023-05-10T14:46:07.000Z,17.22
2023-05-10T14:48:36.175Z,17.11
2023-05-10T14:51:04.967Z,17.00
2023-05-10T14:53:34.049Z,17.00
2023-05-10T14:56:03.055Z,17.04
2023-05-10T14:58:33.902Z,16.94
2023-05-10T15:01:02.719Z,16.90
2023-05-10T15:03:31.891Z,16.79
2023-05-10T15:06:01.384Z,16.65
2023-05-10T15:08:30.053Z,16.57
2023-05-10T15:10:58.638Z,16.48
2023-05-10T15:13:27.332Z,16.37
2023-05-10T15:15:56.661Z,16.24
2023-05-10T15:18:25.199Z,16.15
2023-05-10T15:20:54.401Z,16.07
2023-05-10T15:23:23.299Z,16.01
2023-05-10T15:25:56.978Z,16.01
2023-05-10T15:28:25.702Z,16.09
2023-05-10T15:30:54.802Z,16.18
2023-05-10T15:33:23.771Z,16.27
2023-05-10T15:35:52.453Z,16.40
2023-05-10T15:38:21.352Z,16.43
2023-05-10T15:40:49.935Z,16.40
2023-05-10T15:43:18.613Z,16.36
2023-05-10T15:45:47.092Z,16.28
2023-05-10T15:48:15.891Z,16.25
2023-05-10T15:50:44.483Z,16.18
2023-05-10T15:53:13.878Z,16.15
2023-05-10T15:55:42.462Z,16.14
2023-05-10T15:58:11.659Z,16.11
2023-05-10T16:00:40.888Z,15.93
2023-05-10T16:03:09.857Z,15.78
2023-05-10T16:05:38.529Z,15.62
2023-05-10T16:08:07.828Z,15.41
2023-05-10T16:10:37.327Z,15.22
2023-05-10T16:13:06.222Z,15.06
2023-05-10T16:15:34.711Z,14.95
2023-05-10T16:18:03.269Z,14.88
2023-05-10T16:20:33.122Z,14.82
2023-05-10T16:23:03.426Z,14.70
2023-05-10T16:25:32.218Z,14.59
2023-05-10T16:28:01.001Z,14.49
2023-05-10T16:30:31.139Z,14.40
2023-05-10T16:33:00.843Z,14.33
2023-05-10T16:35:30.235Z,14.24
2023-05-10T16:37:58.715Z,14.17
2023-05-10T16:40:27.186Z,14.09
2023-05-10T16:42:55.669Z,14.01
2023-05-10T16:45:24.467Z,13.94
2023-05-10T16:47:54.148Z,13.88
2023-05-10T16:50:22.972Z,13.80
2023-05-10T16:52:51.432Z,13.73
2023-05-10T16:55:20.746Z,13.67
2023-05-10T16:57:49.931Z,13.63
2023-05-10T17:00:18.420Z,13.59
2023-05-10T17:02:47.077Z,13.55
2023-05-10T17:05:15.901Z,13.51
2023-05-10T17:07:45.399Z,13.45
2023-05-10T17:10:14.182Z,13.39
2023-05-10T17:12:43.284Z,13.32
2023-05-10T17:15:12.803Z,13.25
2023-05-10T17:17:41.483Z,13.18
2023-05-10T17:20:10.522Z,13.10
2023-05-10T17:22:39.366Z,13.02
2023-05-10T17:25:08.036Z,12.94
2023-05-10T17:27:36.930Z,12.88
2023-05-10T17:30:06.147Z,12.82
2023-05-10T17:32:34.636Z,12.73
2023-05-10T17:35:05.383Z,12.66
2023-05-10T17:37:34.025Z,12.61
2023-05-10T17:40:03.869Z,12.55
2023-05-10T17:42:32.943Z,12.48
2023-05-10T17:45:01.660Z,12.38
2023-05-10T17:47:30.171Z,12.31
2023-05-10T17:49:58.884Z,12.24
2023-05-10T17:52:27.366Z,12.17
2023-05-10T17:54:56.053Z,12.10
2023-05-10T17:57:25.450Z,12.04
2023-05-10T17:59:53.927Z,11.97
2023-05-10T18:02:22.445Z,11.91
2023-05-10T18:04:51.240Z,11.86
2023-05-10T18:07:20.600Z,11.82
2023-05-10T18:09:48.974Z,11.76
2023-05-10T18:12:17.461Z,11.70
2023-05-10T18:14:46.167Z,11.63
2023-05-10T18:17:15.548Z,11.54
2023-05-10T18:19:44.026Z,11.45
2023-05-10T18:22:12.916Z,11.40
2023-05-10T18:24:42.551Z,11.36
2023-05-10T18:27:11.722Z,11.31
2023-05-10T18:29:40.203Z,11.25
2023-05-10T18:32:08.888Z,11.17
2023-05-10T18:34:37.580Z,11.05
2023-05-10T18:37:08.017Z,10.91
2023-05-10T18:39:37.507Z,10.78
2023-05-10T18:42:06.196Z,10.64
2023-05-10T18:44:34.981Z,10.51
2023-05-10T18:47:03.459Z,10.36
2023-05-10T18:49:32.562Z,10.23
2023-05-10T18:52:01.099Z,10.11
2023-05-10T18:54:30.480Z,10.01
2023-05-10T18:56:59.159Z,9.92
2023-05-10T18:59:28.422Z,9.86
2023-05-10T19:01:57.558Z,9.80
2023-05-10T19:04:26.640Z,9.76
2023-05-10T19:06:56.308Z,9.75
2023-05-10T19:09:26.547Z,9.76
2023-05-10T19:11:54.919Z,9.75
2023-05-10T19:14:25.174Z,9.73
2023-05-10T19:16:56.123Z,9.69
2023-05-10T19:19:25.692Z,9.65
2023-05-10T19:21:54.168Z,9.60
2023-05-10T19:24:23.781Z,9.55
2023-05-10T19:26:53.895Z,9.49
2023-05-10T19:29:23.699Z,9.43
2023-05-10T19:31:53.033Z,9.37
2023-05-10T19:34:21.714Z,9.31
2023-05-10T19:36:52.427Z,9.26
2023-05-10T19:39:22.155Z,9.20
2023-05-10T19:41:50.721Z,9.14
2023-05-10T19:44:19.557Z,9.10
2023-05-10T19:46:48.129Z,9.06
2023-05-10T19:49:17.209Z,9.02
2023-05-10T19:51:46.652Z,8.98
2023-05-10T19:54:15.200Z,8.93
2023-05-10T19:56:43.874Z,8.89
2023-05-10T19:59:12.748Z,8.83
2023-05-10T20:01:41.454Z,8.78
2023-05-10T20:04:10.681Z,8.72
2023-05-10T20:06:39.322Z,8.65
2023-05-10T20:09:07.815Z,8.58
2023-05-10T20:11:36.380Z,8.53
2023-05-10T20:14:05.484Z,8.46
2023-05-10T20:16:34.099Z,8.39
2023-05-10T20:19:03.532Z,8.32
2023-05-10T20:21:33.891Z,8.27
2023-05-10T20:24:02.370Z,8.23
2023-05-10T20:26:31.466Z,8.20
2023-05-10T20:29:00.769Z,8.16
2023-05-10T20:31:29.737Z,8.15
2023-05-10T20:33:58.141Z,8.14
2023-05-10T20:36:27.228Z,8.12
2023-05-10T20:38:56.130Z,8.10
2023-05-10T20:41:25.233Z,8.07
2023-05-10T20:43:53.791Z,8.07
2023-05-10T20:46:23.472Z,8.06
2023-05-10T20:48:52.198Z,8.06
2023-05-10T20:51:20.784Z,8.06
2023-05-10T20:53:49.371Z,8.04
2023-05-10T20:56:19.104Z,8.03
2023-05-10T20:58:47.560Z,8.01
2023-05-10T21:01:16.273Z,7.99
2023-05-10T21:03:45.139Z,7.95
2023-05-10T21:06:13.843Z,7.92
2023-05-10T21:08:42.612Z,7.89
2023-05-10T21:11:11.186Z,7.85
2023-05-10T21:13:40.298Z,7.83
2023-05-10T21:16:08.997Z,7.81
2023-05-10T21:18:38.108Z,7.80
2023-05-10T21:21:06.855Z,7.79
2023-05-10T21:23:35.545Z,7.77
2023-05-10T21:26:05.388Z,7.77
2023-05-10T21:28:34.251Z,7.77
2023-05-10T21:31:03.349Z,7.76
2023-05-10T21:33:32.039Z,7.75
2023-05-10T21:36:02.132Z,7.75
2023-05-10T21:38:31.869Z,7.74
2023-05-10T21:41:02.122Z,7.74
2023-05-10T21:43:32.107Z,7.73
2023-05-10T21:46:00.831Z,7.75
2023-05-10T21:48:29.977Z,7.78
2023-05-10T21:50:59.612Z,7.81
2023-05-10T21:53:28.889Z,7.84
2023-05-10T21:55:59.802Z,7.88
2023-05-10T21:58:29.448Z,7.91
2023-05-10T22:00:59.109Z,7.92
2023-05-10T22:03:28.433Z,7.90
2023-05-10T22:05:58.564Z,7.88
2023-05-10T22:08:27.777Z,7.86
2023-05-10T22:10:57.385Z,7.86
2023-05-10T22:13:27.171Z,7.83
2023-05-10T22:15:56.275Z,7.79
2023-05-10T22:18:26.331Z,7.76
2023-05-10T22:20:55.705Z,7.73
2023-05-10T22:23:25.507Z,7.70
2023-05-10T22:25:54.500Z,7.69
2023-05-10T22:28:24.417Z,7.68
2023-05-10T22:30:53.958Z,7.65
2023-05-10T22:33:23.150Z,7.59
2023-05-10T22:35:52.606Z,7.54
2023-05-10T22:38:21.926Z,7.50
2023-05-10T22:40:51.419Z,7.45
2023-05-10T22:43:20.435Z,7.39
2023-05-10T22:45:50.347Z,7.33
2023-05-10T22:48:21.260Z,7.26
2023-05-10T22:50:51.309Z,7.18
2023-05-10T22:53:21.119Z,7.10
2023-05-10T22:55:53.125Z,7.02
2023-05-10T22:58:24.455Z,6.94
2023-05-10T23:00:55.567Z,6.85
2023-05-10T23:03:25.770Z,6.78
2023-05-10T23:05:55.201Z,6.73
2023-05-10T23:08:26.500Z,6.68
2023-05-10T23:10:56.450Z,6.63
2023-05-10T23:13:26.719Z,6.60
2023-05-10T23:15:56.981Z,6.56
2023-05-10T23:18:27.802Z,6.49
2023-05-10T23:20:57.266Z,6.43
2023-05-10T23:23:26.733Z,6.37
2023-05-10T23:25:56.103Z,6.30
2023-05-10T23:28:26.393Z,6.23
2023-05-10T23:30:57.009Z,6.16
2023-05-10T23:33:27.690Z,6.09
2023-05-10T23:35:59.640Z,6.03
2023-05-10T23:38:31.219Z,5.98
2023-05-10T23:41:02.076Z,5.93
2023-05-10T23:43:32.038Z,5.88
2023-05-10T23:46:03.374Z,5.82
2023-05-10T23:48:35.988Z,5.77
2023-05-10T23:51:07.702Z,5.74
2023-05-10T23:53:38.912Z,5.71
2023-05-10T23:56:09.902Z,5.68
2023-05-10T23:58:40.190Z,5.66
